sensor_id;sensor_type;location;lat;lon;timestamp;temperature;humidity
21331;DHT22;10824;51.632;4.950;2024-03-02T00:01:53;7.10;1.00
21331;DHT22;10824;51.632;4.950;2024-03-02T00:04:51;7.20;99.90
21331;DHT22;10824;51.632;4.950;2024-03-02T00:08:07;7.10;1.00
21331;DHT22;10824;51.632;4.950;2024-03-02T00:10:59;7.10;99.90
21331;DHT22;10824;51.632;4.950;2024-03-02T00:13:29;7.10;1.00
21331;DHT22;10824;51.632;4.950;2024-03-02T00:16:01;7.10;63.20
21331;DHT22;10824;51.632;4.950;2024-03-02T00:18:54;7.10;99.90
21331;DHT22;10824;51.632;4.950;2024-03-02T00:21:24;7.10;1.00
21331;DHT22;10824;51.632;4.950;2024-03-02T00:23:53;7.10;1.00
21331;DHT22;10824;51.632;4.950;2024-03-02T00:26:21;7.00;99.90
21331;DHT22;10824;51.632;4.950;2024-03-02T00:28:49;7.00;99.90
21331;DHT22;10824;51.632;4.950;2024-03-02T00:31:20;7.00;1.00
21331;DHT22;10824;51.632;4.950;2024-03-02T00:33:48;7.00;1.00
21331;DHT22;10824;51.632;4.950;2024-03-02T00:36:16;6.90;1.00
21331;DHT22;10824;51.632;4.950;2024-03-02T00:41:27;7.00;99.90
21331;DHT22;10824;51.632;4.950;2024-03-02T00:44:04;6.90;99.90
21331;DHT22;10824;51.632;4.950;2024-03-02T00:46:37;7.00;99.90
21331;DHT22;10824;51.632;4.950;2024-03-02T00:49:06;6.90;99.90
21331;DHT22;10824;51.632;4.950;2024-03-02T00:51:39;6.90;99.90
21331;DHT22;10824;51.632;4.950;2024-03-02T00:54:08;6.90;99.90
21331;DHT22;10824;51.632;4.950;2024-03-02T00:56:36;6.90;40.10
21331;DHT22;10824;51.632;4.950;2024-03-02T00:59:03;6.90;89.70
21331;DHT22;10824;51.632;4.950;2024-03-02T01:01:30;6.90;1.00
21331;DHT22;10824;51.632;4.950;2024-03-02T01:03:57;6.90;1.00
21331;DHT22;10824;51.632;4.950;2024-03-02T01:06:25;6.90;1.00
21331;DHT22;10824;51.632;4.950;2024-03-02T01:08:53;6.90;1.00
21331;DHT22;10824;51.632;4.950;2024-03-02T01:11:20;6.90;1.00
21331;DHT22;10824;51.632;4.950;2024-03-02T01:13:51;6.90;1.00
21331;DHT22;10824;51.632;4.950;2024-03-02T01:16:21;6.90;1.00
21331;DHT22;10824;51.632;4.950;2024-03-02T01:18:48;6.90;1.00
21331;DHT22;10824;51.632;4.950;2024-03-02T01:21:16;6.80;1.00
21331;DHT22;10824;51.632;4.950;2024-03-02T01:23:43;6.80;1.00
21331;DHT22;10824;51.632;4.950;2024-03-02T01:26:10;6.80;1.00
21331;DHT22;10824;51.632;4.950;2024-03-02T01:28:38;6.80;1.00
21331;DHT22;10824;51.632;4.950;2024-03-02T01:31:05;6.70;1.00
21331;DHT22;10824;51.632;4.950;2024-03-02T01:33:32;6.80;99.90
21331;DHT22;10824;51.632;4.950;2024-03-02T01:35:59;6.80;54.70
21331;DHT22;10824;51.632;4.950;2024-03-02T01:38:26;6.80;1.00
21331;DHT22;10824;51.632;4.950;2024-03-02T01:40:55;6.80;1.00
21331;DHT22;10824;51.632;4.950;2024-03-02T01:43:24;6.80;1.00
21331;DHT22;10824;51.632;4.950;2024-03-02T01:45:51;6.80;38.90
21331;DHT22;10824;51.632;4.950;2024-03-02T01:48:18;6.80;99.90
21331;DHT22;10824;51.632;4.950;2024-03-02T01:50:46;6.70;16.20
21331;DHT22;10824;51.632;4.950;2024-03-02T01:53:13;6.80;16.20
21331;DHT22;10824;51.632;4.950;2024-03-02T01:55:40;6.70;1.00
21331;DHT22;10824;51.632;4.950;2024-03-02T01:58:08;6.70;99.90
21331;DHT22;10824;51.632;4.950;2024-03-02T02:00:35;6.70;1.00
21331;DHT22;10824;51.632;4.950;2024-03-02T02:03:02;6.60;1.00
21331;DHT22;10824;51.632;4.950;2024-03-02T02:05:30;6.70;99.90
21331;DHT22;10824;51.632;4.950;2024-03-02T02:07:58;6.70;99.90
21331;DHT22;10824;51.632;4.950;2024-03-02T02:10:26;6.70;99.90
21331;DHT22;10824;51.632;4.950;2024-03-02T02:12:53;6.70;99.90
21331;DHT22;10824;51.632;4.950;2024-03-02T02:15:27;6.70;99.90
21331;DHT22;10824;51.632;4.950;2024-03-02T02:17:56;6.70;99.90
21331;DHT22;10824;51.632;4.950;2024-03-02T02:20:24;6.70;99.90
21331;DHT22;10824;51.632;4.950;2024-03-02T02:23:03;6.70;99.90
21331;DHT22;10824;51.632;4.950;2024-03-02T02:25:31;6.70;99.90
21331;DHT22;10824;51.632;4.950;2024-03-02T02:27:58;6.60;99.90
21331;DHT22;10824;51.632;4.950;2024-03-02T02:30:31;6.60;99.90
21331;DHT22;10824;51.632;4.950;2024-03-02T02:32:59;6.60;99.90
21331;DHT22;10824;51.632;4.950;2024-03-02T02:35:26;6.50;1.00
21331;DHT22;10824;51.632;4.950;2024-03-02T02:37:55;6.60;99.90
21331;DHT22;10824;51.632;4.950;2024-03-02T02:40:23;6.60;99.90
21331;DHT22;10824;51.632;4.950;2024-03-02T02:42:50;6.70;99.90
21331;DHT22;10824;51.632;4.950;2024-03-02T02:45:21;6.70;99.90
21331;DHT22;10824;51.632;4.950;2024-03-02T02:47:48;6.60;99.90
21331;DHT22;10824;51.632;4.950;2024-03-02T02:50:16;6.60;99.90
21331;DHT22;10824;51.632;4.950;2024-03-02T02:52:43;6.60;99.90
21331;DHT22;10824;51.632;4.950;2024-03-02T02:55:13;6.70;99.90
21331;DHT22;10824;51.632;4.950;2024-03-02T02:57:43;6.60;99.90
21331;DHT22;10824;51.632;4.950;2024-03-02T03:00:13;6.70;99.90
21331;DHT22;10824;51.632;4.950;2024-03-02T03:02:48;6.70;99.90
21331;DHT22;10824;51.632;4.950;2024-03-02T03:05:18;6.60;99.90
21331;DHT22;10824;51.632;4.950;2024-03-02T03:07:47;6.60;33.50
21331;DHT22;10824;51.632;4.950;2024-03-02T03:10:17;6.60;1.00
21331;DHT22;10824;51.632;4.950;2024-03-02T03:12:45;6.60;33.50
21331;DHT22;10824;51.632;4.950;2024-03-02T03:15:13;6.60;7.60
21331;DHT22;10824;51.632;4.950;2024-03-02T03:17:41;6.60;13.60
21331;DHT22;10824;51.632;4.950;2024-03-02T03:20:09;6.60;99.90
21331;DHT22;10824;51.632;4.950;2024-03-02T03:22:42;6.50;99.90
21331;DHT22;10824;51.632;4.950;2024-03-02T03:25:10;6.60;99.90
21331;DHT22;10824;51.632;4.950;2024-03-02T03:27:37;6.50;36.80
21331;DHT22;10824;51.632;4.950;2024-03-02T03:30:05;6.60;32.00
21331;DHT22;10824;51.632;4.950;2024-03-02T03:32:34;6.50;21.70
21331;DHT22;10824;51.632;4.950;2024-03-02T03:35:01;6.50;35.90
21331;DHT22;10824;51.632;4.950;2024-03-02T03:37:29;6.50;51.90
21331;DHT22;10824;51.632;4.950;2024-03-02T03:40:04;6.50;1.00
21331;DHT22;10824;51.632;4.950;2024-03-02T03:42:38;6.50;1.00
21331;DHT22;10824;51.632;4.950;2024-03-02T03:45:06;6.50;1.00
21331;DHT22;10824;51.632;4.950;2024-03-02T03:47:34;6.50;1.00
21331;DHT22;10824;51.632;4.950;2024-03-02T03:50:01;6.50;99.90
21331;DHT22;10824;51.632;4.950;2024-03-02T03:52:29;6.50;99.90
21331;DHT22;10824;51.632;4.950;2024-03-02T03:54:57;6.50;99.90
21331;DHT22;10824;51.632;4.950;2024-03-02T03:57:27;6.50;99.90
21331;DHT22;10824;51.632;4.950;2024-03-02T03:59:54;6.50;77.00
21331;DHT22;10824;51.632;4.950;2024-03-02T04:02:21;6.60;99.90
21331;DHT22;10824;51.632;4.950;2024-03-02T04:04:48;6.50;8.80
21331;DHT22;10824;51.632;4.950;2024-03-02T04:07:15;6.50;1.00
21331;DHT22;10824;51.632;4.950;2024-03-02T04:09:42;6.50;1.00
21331;DHT22;10824;51.632;4.950;2024-03-02T04:12:10;6.50;1.00
21331;DHT22;10824;51.632;4.950;2024-03-02T04:14:37;6.50;1.00
21331;DHT22;10824;51.632;4.950;2024-03-02T04:17:04;6.50;1.00
21331;DHT22;10824;51.632;4.950;2024-03-02T04:19:32;6.40;1.00
21331;DHT22;10824;51.632;4.950;2024-03-02T04:21:59;6.30;48.00
21331;DHT22;10824;51.632;4.950;2024-03-02T04:24:34;6.30;99.90
21331;DHT22;10824;51.632;4.950;2024-03-02T04:27:02;6.30;99.90
21331;DHT22;10824;51.632;4.950;2024-03-02T04:29:29;6.30;99.90
21331;DHT22;10824;51.632;4.950;2024-03-02T04:31:56;6.20;99.90
21331;DHT22;10824;51.632;4.950;2024-03-02T04:34:23;6.20;99.90
21331;DHT22;10824;51.632;4.950;2024-03-02T04:36:50;6.30;99.90
21331;DHT22;10824;51.632;4.950;2024-03-02T04:39:18;6.30;1.00
21331;DHT22;10824;51.632;4.950;2024-03-02T04:41:45;6.30;1.00
21331;DHT22;10824;51.632;4.950;2024-03-02T04:44:12;6.30;99.90
21331;DHT22;10824;51.632;4.950;2024-03-02T04:46:42;6.40;99.90
21331;DHT22;10824;51.632;4.950;2024-03-02T04:49:09;6.40;1.00
21331;DHT22;10824;51.632;4.950;2024-03-02T04:51:36;6.40;1.00
21331;DHT22;10824;51.632;4.950;2024-03-02T04:54:04;6.40;1.00
21331;DHT22;10824;51.632;4.950;2024-03-02T04:56:31;6.40;1.00
21331;DHT22;10824;51.632;4.950;2024-03-02T04:58:58;6.40;99.90
21331;DHT22;10824;51.632;4.950;2024-03-02T05:01:48;6.40;99.90
21331;DHT22;10824;51.632;4.950;2024-03-02T05:04:15;6.40;99.90
21331;DHT22;10824;51.632;4.950;2024-03-02T05:06:42;6.50;60.80
21331;DHT22;10824;51.632;4.950;2024-03-02T05:09:10;6.50;1.00
21331;DHT22;10824;51.632;4.950;2024-03-02T05:11:37;6.40;1.00
21331;DHT22;10824;51.632;4.950;2024-03-02T05:14:07;6.40;99.90
21331;DHT22;10824;51.632;4.950;2024-03-02T05:16:35;6.30;99.90
21331;DHT22;10824;51.632;4.950;2024-03-02T05:19:05;6.30;99.90
21331;DHT22;10824;51.632;4.950;2024-03-02T05:21:35;6.20;99.90
21331;DHT22;10824;51.632;4.950;2024-03-02T05:24:03;6.20;99.90
21331;DHT22;10824;51.632;4.950;2024-03-02T05:26:30;6.20;99.90
21331;DHT22;10824;51.632;4.950;2024-03-02T05:28:58;6.20;99.90
21331;DHT22;10824;51.632;4.950;2024-03-02T05:31:25;6.10;99.90
21331;DHT22;10824;51.632;4.950;2024-03-02T05:33:53;6.10;99.90
21331;DHT22;10824;51.632;4.950;2024-03-02T05:36:24;6.00;99.90
21331;DHT22;10824;51.632;4.950;2024-03-02T05:38:51;6.10;99.90
21331;DHT22;10824;51.632;4.950;2024-03-02T05:41:19;6.00;99.90
21331;DHT22;10824;51.632;4.950;2024-03-02T05:43:46;6.00;99.90
21331;DHT22;10824;51.632;4.950;2024-03-02T05:46:13;6.00;99.90
21331;DHT22;10824;51.632;4.950;2024-03-02T05:48:41;6.00;99.90
21331;DHT22;10824;51.632;4.950;2024-03-02T05:51:08;6.00;99.90
21331;DHT22;10824;51.632;4.950;2024-03-02T05:53:35;6.00;99.90
21331;DHT22;10824;51.632;4.950;2024-03-02T05:56:05;6.10;99.90
21331;DHT22;10824;51.632;4.950;2024-03-02T05:58:33;6.10;99.90
21331;DHT22;10824;51.632;4.950;2024-03-02T06:01:27;6.10;99.90
21331;DHT22;10824;51.632;4.950;2024-03-02T06:04:01;6.10;99.90
21331;DHT22;10824;51.632;4.950;2024-03-02T06:06:28;6.10;99.90
21331;DHT22;10824;51.632;4.950;2024-03-02T06:08:55;6.20;36.40
21331;DHT22;10824;51.632;4.950;2024-03-02T06:11:23;6.10;6.80
21331;DHT22;10824;51.632;4.950;2024-03-02T06:13:50;6.10;1.00
21331;DHT22;10824;51.632;4.950;2024-03-02T06:16:17;6.10;1.00
21331;DHT22;10824;51.632;4.950;2024-03-02T06:18:44;6.10;1.00
21331;DHT22;10824;51.632;4.950;2024-03-02T06:21:11;6.10;1.00
21331;DHT22;10824;51.632;4.950;2024-03-02T06:23:38;6.10;1.00
21331;DHT22;10824;51.632;4.950;2024-03-02T06:26:05;6.10;1.00
21331;DHT22;10824;51.632;4.950;2024-03-02T06:28:32;6.10;1.00
21331;DHT22;10824;51.632;4.950;2024-03-02T06:31:01;6.10;1.00
21331;DHT22;10824;51.632;4.950;2024-03-02T06:33:28;6.10;99.90
21331;DHT22;10824;51.632;4.950;2024-03-02T06:35:56;6.20;99.90
21331;DHT22;10824;51.632;4.950;2024-03-02T06:38:23;6.20;99.90
21331;DHT22;10824;51.632;4.950;2024-03-02T06:40:50;6.20;99.90
21331;DHT22;10824;51.632;4.950;2024-03-02T06:43:17;6.20;99.90
21331;DHT22;10824;51.632;4.950;2024-03-02T06:45:44;6.20;99.90
21331;DHT22;10824;51.632;4.950;2024-03-02T06:48:12;6.30;99.90
21331;DHT22;10824;51.632;4.950;2024-03-02T06:50:39;6.30;99.90
21331;DHT22;10824;51.632;4.950;2024-03-02T06:53:06;6.30;99.90
21331;DHT22;10824;51.632;4.950;2024-03-02T06:55:33;6.30;99.90
21331;DHT22;10824;51.632;4.950;2024-03-02T06:58:01;6.30;1.00
21331;DHT22;10824;51.632;4.950;2024-03-02T07:00:28;6.30;1.00
21331;DHT22;10824;51.632;4.950;2024-03-02T07:02:56;6.30;1.00
21331;DHT22;10824;51.632;4.950;2024-03-02T07:05:23;6.20;1.00
21331;DHT22;10824;51.632;4.950;2024-03-02T07:07:50;6.30;1.00
21331;DHT22;10824;51.632;4.950;2024-03-02T07:10:17;6.30;1.00
21331;DHT22;10824;51.632;4.950;2024-03-02T07:12:44;6.30;1.00
21331;DHT22;10824;51.632;4.950;2024-03-02T07:15:11;6.30;1.00
21331;DHT22;10824;51.632;4.950;2024-03-02T07:17:56;6.20;1.00
21331;DHT22;10824;51.632;4.950;2024-03-02T07:20:23;6.20;1.00
21331;DHT22;10824;51.632;4.950;2024-03-02T07:22:52;6.20;1.00
21331;DHT22;10824;51.632;4.950;2024-03-02T07:25:19;6.20;1.00
21331;DHT22;10824;51.632;4.950;2024-03-02T07:27:49;6.20;1.00
21331;DHT22;10824;51.632;4.950;2024-03-02T07:30:17;6.20;1.00
21331;DHT22;10824;51.632;4.950;2024-03-02T07:32:44;6.20;1.00
21331;DHT22;10824;51.632;4.950;2024-03-02T07:35:12;6.20;1.00
21331;DHT22;10824;51.632;4.950;2024-03-02T07:37:44;6.20;1.00
21331;DHT22;10824;51.632;4.950;2024-03-02T07:40:11;6.20;1.00
21331;DHT22;10824;51.632;4.950;2024-03-02T07:42:39;6.20;1.00
21331;DHT22;10824;51.632;4.950;2024-03-02T07:45:07;6.30;1.40
21331;DHT22;10824;51.632;4.950;2024-03-02T07:47:34;6.30;1.00
21331;DHT22;10824;51.632;4.950;2024-03-02T07:50:02;6.30;99.90
21331;DHT22;10824;51.632;4.950;2024-03-02T07:52:29;6.40;99.90
21331;DHT22;10824;51.632;4.950;2024-03-02T07:54:56;6.50;99.90
21331;DHT22;10824;51.632;4.950;2024-03-02T07:57:23;6.50;99.90
21331;DHT22;10824;51.632;4.950;2024-03-02T07:59:51;6.60;75.30
21331;DHT22;10824;51.632;4.950;2024-03-02T08:02:18;6.60;18.60
21331;DHT22;10824;51.632;4.950;2024-03-02T08:04:46;6.70;1.00
21331;DHT22;10824;51.632;4.950;2024-03-02T08:07:13;6.70;1.00
21331;DHT22;10824;51.632;4.950;2024-03-02T08:09:40;6.80;1.00
21331;DHT22;10824;51.632;4.950;2024-03-02T08:12:07;6.90;1.00
21331;DHT22;10824;51.632;4.950;2024-03-02T08:14:35;6.90;1.00
21331;DHT22;10824;51.632;4.950;2024-03-02T08:17:02;7.00;1.00
21331;DHT22;10824;51.632;4.950;2024-03-02T08:19:30;7.10;99.90
21331;DHT22;10824;51.632;4.950;2024-03-02T08:21:57;7.10;99.90
21331;DHT22;10824;51.632;4.950;2024-03-02T08:24:26;7.20;99.90
21331;DHT22;10824;51.632;4.950;2024-03-02T08:26:53;7.30;99.90
21331;DHT22;10824;51.632;4.950;2024-03-02T08:29:21;7.40;99.90
21331;DHT22;10824;51.632;4.950;2024-03-02T08:31:48;7.50;99.90
21331;DHT22;10824;51.632;4.950;2024-03-02T08:34:16;7.50;6.10
21331;DHT22;10824;51.632;4.950;2024-03-02T08:36:43;7.60;1.00
21331;DHT22;10824;51.632;4.950;2024-03-02T08:39:10;7.60;1.00
21331;DHT22;10824;51.632;4.950;2024-03-02T08:41:44;7.70;1.00
21331;DHT22;10824;51.632;4.950;2024-03-02T08:44:12;7.80;1.00
21331;DHT22;10824;51.632;4.950;2024-03-02T08:46:40;7.80;1.00
21331;DHT22;10824;51.632;4.950;2024-03-02T08:49:08;7.90;99.90
21331;DHT22;10824;51.632;4.950;2024-03-02T08:51:35;7.90;99.90
21331;DHT22;10824;51.632;4.950;2024-03-02T08:54:03;8.00;99.90
21331;DHT22;10824;51.632;4.950;2024-03-02T08:56:31;8.00;99.90
21331;DHT22;10824;51.632;4.950;2024-03-02T08:58:58;8.10;99.90
21331;DHT22;10824;51.632;4.950;2024-03-02T09:01:25;8.20;99.90
21331;DHT22;10824;51.632;4.950;2024-03-02T09:03:53;8.30;99.90
21331;DHT22;10824;51.632;4.950;2024-03-02T09:06:20;8.30;99.90
21331;DHT22;10824;51.632;4.950;2024-03-02T09:08:48;8.40;99.90
21331;DHT22;10824;51.632;4.950;2024-03-02T09:11:16;8.40;1.00
21331;DHT22;10824;51.632;4.950;2024-03-02T09:13:43;8.50;1.00
21331;DHT22;10824;51.632;4.950;2024-03-02T09:16:11;8.50;1.00
21331;DHT22;10824;51.632;4.950;2024-03-02T09:18:38;8.50;1.00
21331;DHT22;10824;51.632;4.950;2024-03-02T09:21:05;8.60;1.00
21331;DHT22;10824;51.632;4.950;2024-03-02T09:23:33;8.70;1.00
21331;DHT22;10824;51.632;4.950;2024-03-02T09:26:00;8.70;1.00
21331;DHT22;10824;51.632;4.950;2024-03-02T09:28:29;8.70;1.00
21331;DHT22;10824;51.632;4.950;2024-03-02T09:30:56;8.80;1.00
21331;DHT22;10824;51.632;4.950;2024-03-02T09:33:26;8.90;1.00
21331;DHT22;10824;51.632;4.950;2024-03-02T09:35:54;8.90;99.90
21331;DHT22;10824;51.632;4.950;2024-03-02T09:38:21;8.90;99.90
21331;DHT22;10824;51.632;4.950;2024-03-02T09:40:48;9.00;99.90
21331;DHT22;10824;51.632;4.950;2024-03-02T09:43:16;9.10;99.90
21331;DHT22;10824;51.632;4.950;2024-03-02T09:45:45;9.20;99.90
21331;DHT22;10824;51.632;4.950;2024-03-02T09:48:12;9.20;99.90
21331;DHT22;10824;51.632;4.950;2024-03-02T09:50:39;9.30;99.90
21331;DHT22;10824;51.632;4.950;2024-03-02T09:53:07;9.30;99.90
21331;DHT22;10824;51.632;4.950;2024-03-02T09:55:35;9.30;99.90
21331;DHT22;10824;51.632;4.950;2024-03-02T09:58:03;9.40;99.90
21331;DHT22;10824;51.632;4.950;2024-03-02T10:00:30;9.50;99.90
21331;DHT22;10824;51.632;4.950;2024-03-02T10:02:57;9.60;45.60
21331;DHT22;10824;51.632;4.950;2024-03-02T10:05:26;9.70;46.60
21331;DHT22;10824;51.632;4.950;2024-03-02T10:08:02;9.60;6.00
21331;DHT22;10824;51.632;4.950;2024-03-02T10:10:40;9.70;1.00
21331;DHT22;10824;51.632;4.950;2024-03-02T10:13:11;9.80;1.00
21331;DHT22;10824;51.632;4.950;2024-03-02T10:15:40;9.80;1.00
21331;DHT22;10824;51.632;4.950;2024-03-02T10:18:09;9.90;1.00
21331;DHT22;10824;51.632;4.950;2024-03-02T10:20:40;9.90;1.00
21331;DHT22;10824;51.632;4.950;2024-03-02T10:23:15;9.90;1.00
21331;DHT22;10824;51.632;4.950;2024-03-02T10:25:44;10.10;1.00
21331;DHT22;10824;51.632;4.950;2024-03-02T10:28:23;10.00;1.00
21331;DHT22;10824;51.632;4.950;2024-03-02T10:30:51;10.00;1.00
21331;DHT22;10824;51.632;4.950;2024-03-02T10:33:20;10.10;1.00
21331;DHT22;10824;51.632;4.950;2024-03-02T10:35:49;10.30;1.00
21331;DHT22;10824;51.632;4.950;2024-03-02T10:38:17;10.40;1.00
21331;DHT22;10824;51.632;4.950;2024-03-02T10:40:47;10.40;1.00
21331;DHT22;10824;51.632;4.950;2024-03-02T10:43:16;10.30;1.00
21331;DHT22;10824;51.632;4.950;2024-03-02T10:45:45;10.30;1.00
21331;DHT22;10824;51.632;4.950;2024-03-02T10:48:13;10.40;1.00
21331;DHT22;10824;51.632;4.950;2024-03-02T10:50:40;10.40;1.00
21331;DHT22;10824;51.632;4.950;2024-03-02T10:53:07;10.50;1.00
21331;DHT22;10824;51.632;4.950;2024-03-02T10:55:34;10.60;1.00
21331;DHT22;10824;51.632;4.950;2024-03-02T10:58:04;10.60;73.20
21331;DHT22;10824;51.632;4.950;2024-03-02T11:00:38;10.60;99.90
21331;DHT22;10824;51.632;4.950;2024-03-02T11:03:06;10.60;99.90
21331;DHT22;10824;51.632;4.950;2024-03-02T11:05:37;10.80;99.90
21331;DHT22;10824;51.632;4.950;2024-03-02T11:08:12;10.90;99.90
21331;DHT22;10824;51.632;4.950;2024-03-02T11:10:58;10.80;99.90
21331;DHT22;10824;51.632;4.950;2024-03-02T11:13:33;10.80;99.90
21331;DHT22;10824;51.632;4.950;2024-03-02T11:16:08;10.90;99.90
21331;DHT22;10824;51.632;4.950;2024-03-02T11:18:37;10.90;99.90
21331;DHT22;10824;51.632;4.950;2024-03-02T11:21:05;10.80;99.90
21331;DHT22;10824;51.632;4.950;2024-03-02T11:23:34;10.70;99.90
21331;DHT22;10824;51.632;4.950;2024-03-02T11:26:31;10.80;99.90
21331;DHT22;10824;51.632;4.950;2024-03-02T11:29:04;11.00;99.90
21331;DHT22;10824;51.632;4.950;2024-03-02T11:32:17;11.30;99.90
21331;DHT22;10824;51.632;4.950;2024-03-02T11:34:48;11.50;99.90
21331;DHT22;10824;51.632;4.950;2024-03-02T11:37:19;11.60;99.90
21331;DHT22;10824;51.632;4.950;2024-03-02T11:39:50;11.50;99.90
21331;DHT22;10824;51.632;4.950;2024-03-02T11:42:18;11.50;99.90
21331;DHT22;10824;51.632;4.950;2024-03-02T11:44:46;11.30;99.90
21331;DHT22;10824;51.632;4.950;2024-03-02T11:47:15;11.50;99.90
21331;DHT22;10824;51.632;4.950;2024-03-02T11:49:50;11.60;99.90
21331;DHT22;10824;51.632;4.950;2024-03-02T11:52:18;11.60;99.90
21331;DHT22;10824;51.632;4.950;2024-03-02T11:54:47;11.50;99.90
21331;DHT22;10824;51.632;4.950;2024-03-02T11:57:16;11.50;99.90
21331;DHT22;10824;51.632;4.950;2024-03-02T11:59:44;11.40;99.90
21331;DHT22;10824;51.632;4.950;2024-03-02T12:02:16;11.50;99.90
21331;DHT22;10824;51.632;4.950;2024-03-02T12:04:48;11.60;99.90
21331;DHT22;10824;51.632;4.950;2024-03-02T12:07:22;11.60;99.90
21331;DHT22;10824;51.632;4.950;2024-03-02T12:10:00;11.70;99.90
21331;DHT22;10824;51.632;4.950;2024-03-02T12:12:30;11.70;99.90
21331;DHT22;10824;51.632;4.950;2024-03-02T12:14:57;11.80;99.90
21331;DHT22;10824;51.632;4.950;2024-03-02T12:17:27;11.80;99.90
21331;DHT22;10824;51.632;4.950;2024-03-02T12:19:54;11.90;99.90
21331;DHT22;10824;51.632;4.950;2024-03-02T12:22:21;12.00;99.90
21331;DHT22;10824;51.632;4.950;2024-03-02T12:24:49;12.00;99.90
21331;DHT22;10824;51.632;4.950;2024-03-02T12:27:16;12.00;99.90
21331;DHT22;10824;51.632;4.950;2024-03-02T12:29:45;12.00;99.90
21331;DHT22;10824;51.632;4.950;2024-03-02T12:32:12;12.20;99.90
21331;DHT22;10824;51.632;4.950;2024-03-02T12:34:39;12.20;99.90
21331;DHT22;10824;51.632;4.950;2024-03-02T12:37:06;12.30;99.90
21331;DHT22;10824;51.632;4.950;2024-03-02T12:39:33;12.30;99.90
21331;DHT22;10824;51.632;4.950;2024-03-02T12:42:02;12.40;99.90
21331;DHT22;10824;51.632;4.950;2024-03-02T12:44:30;12.50;99.90
21331;DHT22;10824;51.632;4.950;2024-03-02T12:46:57;12.40;99.90
21331;DHT22;10824;51.632;4.950;2024-03-02T12:49:27;12.40;99.90
21331;DHT22;10824;51.632;4.950;2024-03-02T12:51:55;12.70;99.90
21331;DHT22;10824;51.632;4.950;2024-03-02T12:54:25;12.70;99.90
21331;DHT22;10824;51.632;4.950;2024-03-02T12:56:54;12.60;99.90
21331;DHT22;10824;51.632;4.950;2024-03-02T12:59:24;12.60;99.90
21331;DHT22;10824;51.632;4.950;2024-03-02T13:01:54;12.50;99.90
21331;DHT22;10824;51.632;4.950;2024-03-02T13:04:28;12.60;99.90
21331;DHT22;10824;51.632;4.950;2024-03-02T13:06:55;12.80;99.90
21331;DHT22;10824;51.632;4.950;2024-03-02T13:09:24;12.90;99.90
21331;DHT22;10824;51.632;4.950;2024-03-02T13:11:52;12.70;99.90
21331;DHT22;10824;51.632;4.950;2024-03-02T13:14:22;12.70;99.90
21331;DHT22;10824;51.632;4.950;2024-03-02T13:16:51;12.50;99.90
21331;DHT22;10824;51.632;4.950;2024-03-02T13:19:19;12.60;99.90
21331;DHT22;10824;51.632;4.950;2024-03-02T13:21:46;12.60;99.90
21331;DHT22;10824;51.632;4.950;2024-03-02T13:24:14;12.40;99.90
21331;DHT22;10824;51.632;4.950;2024-03-02T13:26:41;12.40;99.90
21331;DHT22;10824;51.632;4.950;2024-03-02T13:29:08;12.40;99.90
21331;DHT22;10824;51.632;4.950;2024-03-02T13:31:36;12.40;99.90
21331;DHT22;10824;51.632;4.950;2024-03-02T13:34:03;12.40;99.90
21331;DHT22;10824;51.632;4.950;2024-03-02T13:36:30;12.40;99.90
21331;DHT22;10824;51.632;4.950;2024-03-02T13:38:57;12.70;99.90
21331;DHT22;10824;51.632;4.950;2024-03-02T13:41:25;13.00;99.90
21331;DHT22;10824;51.632;4.950;2024-03-02T13:43:52;13.00;99.90
21331;DHT22;10824;51.632;4.950;2024-03-02T13:46:20;13.00;99.90
21331;DHT22;10824;51.632;4.950;2024-03-02T13:48:48;13.20;99.90
21331;DHT22;10824;51.632;4.950;2024-03-02T13:51:16;13.20;99.90
21331;DHT22;10824;51.632;4.950;2024-03-02T13:53:43;13.30;99.90
21331;DHT22;10824;51.632;4.950;2024-03-02T13:56:10;13.30;99.90
21331;DHT22;10824;51.632;4.950;2024-03-02T13:58:37;13.70;99.90
21331;DHT22;10824;51.632;4.950;2024-03-02T14:01:05;13.70;99.90
21331;DHT22;10824;51.632;4.950;2024-03-02T14:03:32;13.80;99.90
21331;DHT22;10824;51.632;4.950;2024-03-02T14:05:59;13.90;99.90
21331;DHT22;10824;51.632;4.950;2024-03-02T14:08:26;13.90;99.90
21331;DHT22;10824;51.632;4.950;2024-03-02T14:10:54;13.90;99.90
21331;DHT22;10824;51.632;4.950;2024-03-02T14:13:22;13.70;99.90
21331;DHT22;10824;51.632;4.950;2024-03-02T14:15:49;13.40;99.90
21331;DHT22;10824;51.632;4.950;2024-03-02T14:18:19;13.30;99.90
21331;DHT22;10824;51.632;4.950;2024-03-02T14:20:48;13.10;99.90
21331;DHT22;10824;51.632;4.950;2024-03-02T14:23:19;13.20;99.90
21331;DHT22;10824;51.632;4.950;2024-03-02T14:25:49;13.30;99.90
21331;DHT22;10824;51.632;4.950;2024-03-02T14:28:16;13.20;99.90
21331;DHT22;10824;51.632;4.950;2024-03-02T14:31:03;13.20;99.90
21331;DHT22;10824;51.632;4.950;2024-03-02T14:33:31;13.10;99.90
21331;DHT22;10824;51.632;4.950;2024-03-02T14:35:58;13.10;99.90
21331;DHT22;10824;51.632;4.950;2024-03-02T14:38:28;13.00;99.90
21331;DHT22;10824;51.632;4.950;2024-03-02T14:40:55;12.90;99.90
21331;DHT22;10824;51.632;4.950;2024-03-02T14:43:25;12.80;99.90
21331;DHT22;10824;51.632;4.950;2024-03-02T14:45:53;12.70;99.90
21331;DHT22;10824;51.632;4.950;2024-03-02T14:48:20;12.80;99.90
21331;DHT22;10824;51.632;4.950;2024-03-02T14:50:47;12.70;99.90
21331;DHT22;10824;51.632;4.950;2024-03-02T14:53:17;12.80;99.90
21331;DHT22;10824;51.632;4.950;2024-03-02T14:55:44;12.70;99.90
21331;DHT22;10824;51.632;4.950;2024-03-02T14:58:12;12.70;99.90
21331;DHT22;10824;51.632;4.950;2024-03-02T15:00:41;12.60;99.90
21331;DHT22;10824;51.632;4.950;2024-03-02T15:03:09;12.60;99.90
21331;DHT22;10824;51.632;4.950;2024-03-02T15:05:39;12.50;99.90
21331;DHT22;10824;51.632;4.950;2024-03-02T15:08:10;12.50;99.90
21331;DHT22;10824;51.632;4.950;2024-03-02T15:10:37;12.50;99.90
21331;DHT22;10824;51.632;4.950;2024-03-02T15:13:04;12.50;99.90
21331;DHT22;10824;51.632;4.950;2024-03-02T15:15:32;12.60;99.90
21331;DHT22;10824;51.632;4.950;2024-03-02T15:17:59;12.60;99.90
21331;DHT22;10824;51.632;4.950;2024-03-02T15:20:32;12.70;99.90
21331;DHT22;10824;51.632;4.950;2024-03-02T15:23:02;12.70;99.90
21331;DHT22;10824;51.632;4.950;2024-03-02T15:25:29;12.70;99.90
21331;DHT22;10824;51.632;4.950;2024-03-02T15:27:57;12.70;99.90
21331;DHT22;10824;51.632;4.950;2024-03-02T15:30:24;12.70;99.90
21331;DHT22;10824;51.632;4.950;2024-03-02T15:32:52;12.80;99.90
21331;DHT22;10824;51.632;4.950;2024-03-02T15:35:19;12.70;99.90
21331;DHT22;10824;51.632;4.950;2024-03-02T15:37:46;12.80;99.90
21331;DHT22;10824;51.632;4.950;2024-03-02T15:40:13;12.90;99.90
21331;DHT22;10824;51.632;4.950;2024-03-02T15:42:40;12.90;99.90
21331;DHT22;10824;51.632;4.950;2024-03-02T15:45:10;13.00;99.90
21331;DHT22;10824;51.632;4.950;2024-03-02T15:47:38;13.00;99.90
21331;DHT22;10824;51.632;4.950;2024-03-02T15:50:05;12.80;99.90
21331;DHT22;10824;51.632;4.950;2024-03-02T15:52:33;12.90;99.90
21331;DHT22;10824;51.632;4.950;2024-03-02T15:55:02;12.90;99.90
21331;DHT22;10824;51.632;4.950;2024-03-02T15:57:33;12.90;99.90
21331;DHT22;10824;51.632;4.950;2024-03-02T16:00:04;12.90;99.90